createdAt,value
2023-02-17T00:01:41.177Z,2.18
2023-02-17T00:04:09.890Z,2.09
2023-02-17T00:06:40.145Z,2.13
2023-02-17T00:09:08.623Z,2.05
2023-02-17T00:11:37.197Z,1.96
2023-02-17T00:14:06.005Z,1.81
2023-02-17T00:16:34.874Z,1.88
2023-02-17T00:19:24.866Z,1.82
2023-02-17T00:21:57.739Z,1.76
2023-02-17T00:24:28.853Z,1.67
2023-02-17T00:26:57.800Z,1.66
2023-02-17T00:29:26.945Z,1.53
2023-02-17T00:31:57.291Z,1.52
2023-02-17T00:34:27.920Z,1.53
2023-02-17T00:36:58.109Z,1.51
2023-02-17T00:39:28.314Z,1.50
2023-02-17T00:41:56.871Z,1.58
2023-02-17T00:44:26.671Z,1.55
2023-02-17T00:46:55.322Z,1.58
2023-02-17T00:49:27.300Z,1.47
2023-02-17T00:52:01.787Z,1.51
2023-02-17T00:54:31.065Z,1.58
2023-02-17T00:56:59.916Z,1.64
2023-02-17T00:59:28.639Z,1.54
2023-02-17T01:01:57.453Z,1.50
2023-02-17T01:04:26.024Z,1.52
2023-02-17T01:06:54.685Z,1.61
2023-02-17T01:09:26.810Z,1.69
2023-02-17T01:11:55.445Z,1.69
2023-02-17T01:14:24.248Z,1.77
2023-02-17T01:16:53.344Z,1.84
2023-02-17T01:19:22.519Z,1.88
2023-02-17T01:21:51.220Z,1.90
2023-02-17T01:24:19.838Z,2.01
2023-02-17T01:26:49.890Z,1.99
2023-02-17T01:29:18.627Z,1.97
2023-02-17T01:31:47.286Z,2.01
2023-02-17T01:34:15.859Z,2.03
2023-02-17T01:36:44.618Z,2.10
2023-02-17T01:39:15.637Z,2.07
2023-02-17T01:41:45.369Z,2.02
2023-02-17T01:44:20.548Z,2.04
2023-02-17T01:46:52.126Z,2.07
2023-02-17T01:49:34.299Z,2.06
2023-02-17T01:52:14.861Z,2.10
2023-02-17T01:54:48.057Z,2.22
2023-02-17T01:57:22.577Z,2.15
2023-02-17T01:59:53.710Z,2.04
2023-02-17T02:02:23.366Z,2.13
2023-02-17T02:04:55.106Z,2.20
2023-02-17T02:07:31.625Z,2.17
2023-02-17T02:10:01.531Z,2.25
2023-02-17T02:12:34.760Z,2.25
2023-02-17T02:15:10.688Z,2.15
2023-02-17T02:18:02.505Z,2.19
2023-02-17T02:21:40.058Z,2.20
2023-02-17T02:24:29.492Z,2.23
2023-02-17T02:27:40.697Z,2.19
2023-02-17T02:30:53.775Z,2.14
2023-02-17T02:33:33.632Z,2.02
2023-02-17T02:36:12.682Z,2.11
2023-02-17T02:38:48.290Z,2.18
2023-02-17T02:41:23.079Z,2.28
2023-02-17T02:43:54.064Z,2.31
2023-02-17T02:46:22.739Z,2.23
2023-02-17T02:48:53.818Z,2.36
2023-02-17T02:51:41.812Z,2.38
2023-02-17T02:54:43.046Z,2.42
2023-02-17T02:57:35.942Z,2.47
2023-02-17T03:00:21.375Z,2.44
2023-02-17T03:02:58.064Z,2.60
2023-02-17T03:05:41.429Z,2.64
2023-02-17T03:08:16.704Z,2.75
2023-02-17T03:10:49.376Z,2.72
2023-02-17T03:13:19.357Z,2.74
2023-02-17T03:15:49.559Z,2.78
2023-02-17T03:18:18.802Z,2.82
2023-02-17T03:20:55.694Z,2.78
2023-02-17T03:23:24.337Z,2.81
2023-02-17T03:25:53.040Z,2.90
2023-02-17T03:28:21.942Z,2.92
2023-02-17T03:30:50.562Z,2.91
2023-02-17T03:33:19.225Z,2.80
2023-02-17T03:35:51.226Z,2.79
2023-02-17T03:38:20.139Z,2.87
2023-02-17T03:40:48.783Z,2.86
2023-02-17T03:43:18.243Z,2.94
2023-02-17T03:45:46.871Z,2.92
2023-02-17T03:48:15.565Z,2.94
2023-02-17T03:50:44.212Z,2.94
2023-02-17T03:53:14.338Z,2.92
2023-02-17T03:55:42.997Z,3.03
2023-02-17T03:58:12.103Z,2.99
2023-02-17T04:00:40.704Z,3.09
2023-02-17T04:03:09.327Z,3.06
2023-02-17T04:05:38.309Z,3.11
2023-02-17T04:08:07.164Z,2.98
2023-02-17T04:10:37.424Z,3.00
2023-02-17T04:13:06.398Z,3.12
2023-02-17T04:15:35.203Z,3.08
2023-02-17T04:18:03.956Z,3.10
2023-02-17T04:20:32.709Z,3.15
2023-02-17T04:23:01.568Z,3.11
2023-02-17T04:25:30.194Z,3.03
2023-02-17T04:28:00.105Z,3.02
2023-02-17T04:30:29.113Z,2.99
2023-02-17T04:32:57.797Z,3.03
2023-02-17T04:35:27.183Z,3.00
2023-02-17T04:37:56.308Z,3.16
2023-02-17T04:40:25.019Z,3.05
2023-02-17T04:42:53.585Z,3.16
2023-02-17T04:45:24.797Z,3.12
2023-02-17T04:47:53.858Z,3.14
2023-02-17T04:50:23.741Z,3.20
2023-02-17T04:52:52.944Z,3.19
2023-02-17T04:55:21.911Z,3.25
2023-02-17T04:57:50.525Z,3.24
2023-02-17T05:00:20.137Z,3.33
2023-02-17T05:02:50.314Z,3.27
2023-02-17T05:05:20.927Z,3.31
2023-02-17T05:07:49.793Z,3.24
2023-02-17T05:10:20.039Z,3.28
2023-02-17T05:12:48.656Z,3.32
2023-02-17T05:15:17.341Z,3.28
2023-02-17T05:17:46.073Z,3.36
2023-02-17T05:20:16.119Z,3.29
2023-02-17T05:22:44.869Z,3.23
2023-02-17T05:25:13.453Z,3.07
2023-02-17T05:27:42.266Z,3.16
2023-02-17T05:30:11.838Z,3.20
2023-02-17T05:32:40.566Z,3.25
2023-02-17T05:35:10.421Z,3.24
2023-02-17T05:37:40.731Z,3.38
2023-02-17T05:40:10.270Z,3.34
2023-02-17T05:42:39.153Z,3.42
2023-02-17T05:45:08.624Z,3.51
2023-02-17T05:47:37.461Z,3.50
2023-02-17T05:50:07.943Z,3.38
2023-02-17T05:52:36.879Z,3.36
2023-02-17T05:55:08.197Z,3.49
2023-02-17T05:57:36.927Z,3.48
2023-02-17T06:00:07.373Z,3.54
2023-02-17T06:02:40.935Z,3.58
2023-02-17T06:05:11.129Z,3.52
2023-02-17T06:07:40.080Z,3.51
2023-02-17T06:10:11.660Z,3.57
2023-02-17T06:12:40.519Z,3.72
2023-02-17T06:15:09.761Z,3.66
2023-02-17T06:17:38.726Z,3.66
2023-02-17T06:20:09.323Z,3.74
2023-02-17T06:22:38.245Z,3.76
2023-02-17T06:25:11.515Z,3.74
2023-02-17T06:27:40.224Z,3.74
2023-02-17T06:30:10.867Z,3.75
2023-02-17T06:32:39.683Z,3.62
2023-02-17T06:35:09.053Z,3.54
2023-02-17T06:37:37.613Z,3.68
2023-02-17T06:40:08.410Z,3.74
2023-02-17T06:42:38.427Z,3.76
2023-02-17T06:45:08.158Z,3.74
2023-02-17T06:47:37.236Z,3.81
2023-02-17T06:50:07.701Z,3.82
2023-02-17T06:52:36.643Z,3.96
2023-02-17T06:55:06.445Z,3.81
2023-02-17T06:57:35.114Z,3.98
2023-02-17T07:00:07.242Z,4.06
2023-02-17T07:02:38.924Z,4.17
2023-02-17T07:05:09.789Z,4.16
2023-02-17T07:07:39.213Z,4.23
2023-02-17T07:10:09.664Z,4.23
2023-02-17T07:12:38.609Z,4.37
2023-02-17T07:15:12.394Z,4.46
2023-02-17T07:17:41.362Z,4.68
2023-02-17T07:20:11.599Z,4.94
2023-02-17T07:22:40.628Z,5.07
2023-02-17T07:25:10.181Z,5.15
2023-02-17T07:27:38.948Z,5.16
2023-02-17T07:30:10.748Z,5.27
2023-02-17T07:32:39.741Z,5.32
2023-02-17T07:35:08.866Z,5.38
2023-02-17T07:37:37.634Z,5.51
2023-02-17T07:40:08.514Z,5.62
2023-02-17T07:42:37.143Z,5.73
2023-02-17T07:45:08.475Z,5.82
2023-02-17T07:47:37.238Z,6.07
2023-02-17T07:50:07.387Z,6.09
2023-02-17T07:52:36.085Z,6.25
2023-02-17T07:55:05.856Z,6.32
2023-02-17T07:57:34.552Z,6.48
2023-02-17T08:00:03.669Z,6.60
2023-02-17T08:02:42.692Z,6.63
2023-02-17T08:05:11.437Z,6.71
2023-02-17T08:07:40.121Z,6.89
2023-02-17T08:10:29.972Z,6.70
2023-02-17T08:13:16.302Z,6.92
2023-02-17T08:15:45.224Z,7.02
2023-02-17T08:18:15.448Z,7.07
2023-02-17T08:20:44.486Z,7.31
2023-02-17T08:23:13.180Z,7.51
2023-02-17T08:25:42.018Z,7.58
2023-02-17T08:28:14.081Z,7.70
2023-02-17T08:30:42.986Z,7.87
2023-02-17T08:33:11.753Z,7.80
2023-02-17T08:35:43.673Z,7.87
2023-02-17T08:38:12.577Z,7.74
2023-02-17T08:40:41.342Z,7.73
2023-02-17T08:43:10.464Z,7.65
2023-02-17T08:45:39.606Z,7.84
2023-02-17T08:48:08.536Z,8.00
2023-02-17T08:50:37.227Z,7.99
2023-02-17T08:53:07.389Z,8.10
2023-02-17T08:55:48.690Z,8.19
2023-02-17T08:58:18.065Z,8.33
2023-02-17T09:00:46.919Z,8.36
2023-02-17T09:03:16.528Z,8.40
2023-02-17T09:05:45.197Z,8.63
2023-02-17T09:08:15.366Z,8.63
2023-02-17T09:10:44.171Z,8.80
2023-02-17T09:13:12.960Z,8.83
2023-02-17T09:15:41.690Z,9.04
2023-02-17T09:18:10.761Z,8.77
2023-02-17T09:20:40.342Z,8.96
2023-02-17T09:23:09.382Z,9.18
2023-02-17T09:25:40.585Z,9.30
2023-02-17T09:28:09.851Z,9.41
2023-02-17T09:30:38.846Z,9.48
2023-02-17T09:33:08.033Z,9.49
2023-02-17T09:35:39.131Z,9.54
2023-02-17T09:38:10.292Z,9.85
2023-02-17T09:40:48.403Z,10.19
2023-02-17T09:43:19.809Z,10.29
2023-02-17T09:45:53.757Z,10.41
2023-02-17T09:48:30.491Z,10.63
2023-02-17T09:51:06.705Z,10.97
2023-02-17T09:53:42.359Z,11.33
2023-02-17T09:56:19.917Z,11.55
2023-02-17T09:58:54.028Z,11.85
2023-02-17T10:01:29.566Z,11.98
2023-02-17T10:04:08.217Z,12.03
2023-02-17T10:06:42.236Z,12.07
2023-02-17T10:09:18.247Z,11.93
2023-02-17T10:11:57.286Z,11.78
2023-02-17T10:14:34.209Z,11.81
2023-02-17T10:17:11.369Z,12.07
2023-02-17T10:19:53.239Z,12.20
2023-02-17T10:22:24.457Z,12.14
2023-02-17T10:24:53.615Z,12.24
2023-02-17T10:27:39.540Z,12.20
2023-02-17T10:30:32.216Z,12.12
2023-02-17T10:33:14.809Z,12.64
2023-02-17T10:35:53.170Z,12.87
2023-02-17T10:38:44.446Z,12.97
2023-02-17T10:41:21.255Z,13.07
2023-02-17T10:43:52.620Z,13.16
2023-02-17T10:46:31.546Z,12.95
2023-02-17T10:49:01.519Z,12.89
2023-02-17T10:51:33.045Z,12.76
2023-02-17T10:54:11.992Z,12.70
2023-02-17T10:56:48.161Z,12.71
2023-02-17T10:59:25.006Z,12.73
2023-02-17T11:01:59.460Z,12.39
2023-02-17T11:04:27.982Z,12.61
2023-02-17T11:07:10.289Z,12.31
2023-02-17T11:09:47.853Z,12.23
2023-02-17T11:12:23.883Z,12.47
2023-02-17T11:14:57.010Z,12.58
2023-02-17T11:17:32.213Z,12.83
2023-02-17T11:20:04.103Z,12.98
2023-02-17T11:22:40.936Z,13.15
2023-02-17T11:25:24.088Z,13.17
2023-02-17T11:27:54.427Z,13.12
2023-02-17T11:30:26.680Z,12.98
2023-02-17T11:32:56.832Z,13.18
2023-02-17T11:35:29.685Z,13.28
2023-02-17T11:38:03.801Z,13.40
2023-02-17T11:40:34.616Z,13.58
2023-02-17T11:43:05.924Z,13.86
2023-02-17T11:45:50.211Z,14.16
2023-02-17T11:48:58.429Z,14.20
2023-02-17T11:51:39.265Z,14.53
2023-02-17T11:54:22.267Z,14.82
2023-02-17T11:57:13.889Z,14.74
2023-02-17T12:00:05.739Z,14.38
2023-02-17T12:03:19.929Z,14.16
2023-02-17T12:06:05.866Z,14.35
2023-02-17T12:08:52.824Z,14.38
2023-02-17T12:11:36.448Z,14.33
2023-02-17T12:14:36.584Z,14.48
2023-02-17T12:17:17.731Z,14.80
2023-02-17T12:20:07.096Z,15.02
2023-02-17T12:22:50.111Z,14.94
2023-02-17T12:25:29.056Z,14.97
2023-02-17T12:28:29.456Z,15.07
2023-02-17T12:31:05.138Z,15.06
2023-02-17T12:33:51.604Z,14.71
2023-02-17T12:36:30.055Z,14.50
2023-02-17T12:39:04.101Z,14.84
2023-02-17T12:41:40.078Z,14.60
2023-02-17T12:44:15.510Z,14.45
2023-02-17T12:46:48.406Z,14.44
2023-02-17T12:49:24.948Z,14.42
2023-02-17T12:52:05.433Z,14.15
2023-02-17T12:54:41.832Z,14.39
2023-02-17T12:57:19.904Z,14.20
2023-02-17T12:59:51.684Z,13.95
2023-02-17T13:02:23.466Z,13.83
2023-02-17T13:04:54.832Z,13.96
2023-02-17T13:07:41.076Z,14.09
2023-02-17T13:10:28.684Z,14.15
2023-02-17T13:13:02.318Z,13.96
2023-02-17T13:15:36.943Z,13.68
2023-02-17T13:18:12.061Z,13.65
2023-02-17T13:20:53.456Z,13.54
2023-02-17T13:23:48.126Z,13.61
2023-02-17T13:26:29.458Z,13.85
2023-02-17T13:29:20.935Z,13.68
2023-02-17T13:31:54.078Z,13.73
2023-02-17T13:34:43.377Z,13.71
2023-02-17T13:37:26.579Z,13.97
2023-02-17T13:39:56.576Z,13.50
2023-02-17T13:42:40.302Z,13.27
2023-02-17T13:45:26.523Z,13.11
2023-02-17T13:47:58.387Z,12.89
2023-02-17T13:50:35.654Z,13.08
2023-02-17T13:53:22.325Z,13.07
2023-02-17T13:55:52.839Z,13.02
2023-02-17T13:58:28.381Z,12.88
2023-02-17T14:00:59.599Z,12.88
2023-02-17T14:03:31.737Z,12.91
2023-02-17T14:06:03.177Z,13.02
2023-02-17T14:08:38.247Z,12.73
2023-02-17T14:11:12.208Z,12.94
2023-02-17T14:13:44.564Z,13.11
2023-02-17T14:16:30.486Z,13.29
2023-02-17T14:19:09.033Z,13.34
2023-02-17T14:21:42.759Z,13.47
2023-02-17T14:24:27.124Z,13.65
2023-02-17T14:27:01.759Z,13.54
2023-02-17T14:29:42.879Z,13.68
2023-02-17T14:32:34.243Z,13.74
2023-02-17T14:35:22.820Z,13.56
2023-02-17T14:37:51.402Z,13.50
2023-02-17T14:40:24.297Z,13.49
2023-02-17T14:42:54.338Z,13.48
2023-02-17T14:45:23.158Z,13.39
2023-02-17T14:47:51.802Z,13.44
2023-02-17T14:50:20.672Z,13.48
2023-02-17T14:52:52.362Z,13.63
2023-02-17T14:55:33.785Z,13.79
2023-02-17T14:58:04.981Z,13.65
2023-02-17T15:00:33.586Z,13.99
2023-02-17T15:03:02.181Z,13.81
2023-02-17T15:05:30.956Z,14.11
2023-02-17T15:08:02.724Z,14.20
2023-02-17T15:10:31.569Z,14.29
2023-02-17T15:13:00.134Z,14.21
2023-02-17T15:15:30.013Z,14.29
2023-02-17T15:17:59.081Z,14.58
2023-02-17T15:20:27.889Z,14.17
2023-02-17T15:22:58.989Z,14.35
2023-02-17T15:25:27.777Z,14.33
2023-02-17T15:27:56.324Z,14.19
2023-02-17T15:30:28.370Z,14.19
2023-02-17T15:32:58.967Z,14.02
2023-02-17T15:35:29.549Z,14.00
2023-02-17T15:37:58.329Z,13.99
2023-02-17T15:40:29.426Z,14.02
2023-02-17T15:43:03.437Z,13.89
2023-02-17T15:45:32.292Z,13.75
2023-02-17T15:48:08.090Z,13.60
2023-02-17T15:50:36.609Z,13.60
2023-02-17T15:53:05.450Z,13.58
2023-02-17T15:55:35.245Z,13.60
2023-02-17T15:58:07.120Z,13.39
2023-02-17T16:00:37.149Z,13.46
2023-02-17T16:03:07.311Z,13.35
2023-02-17T16:05:36.065Z,13.39
2023-02-17T16:08:04.917Z,13.43
2023-02-17T16:10:34.615Z,13.34
2023-02-17T16:13:05.039Z,13.33
2023-02-17T16:15:35.567Z,13.41
2023-02-17T16:18:06.349Z,13.26
2023-02-17T16:20:35.241Z,13.36
2023-02-17T16:23:04.481Z,13.30
2023-02-17T16:25:33.097Z,13.27
2023-02-17T16:28:01.749Z,12.95
2023-02-17T16:30:34.494Z,12.91
2023-02-17T16:33:04.868Z,12.85
2023-02-17T16:35:34.924Z,12.65
2023-02-17T16:38:08.213Z,12.54
2023-02-17T16:40:47.075Z,12.41
2023-02-17T16:43:17.941Z,12.35
2023-02-17T16:45:54.124Z,12.27
2023-02-17T16:48:25.784Z,12.12
2023-02-17T16:50:56.019Z,12.03
2023-02-17T16:53:24.716Z,11.97
2023-02-17T16:55:55.397Z,12.00
2023-02-17T16:58:27.440Z,11.94
2023-02-17T17:00:57.185Z,11.94
2023-02-17T17:03:25.863Z,11.99
2023-02-17T17:05:58.992Z,12.08
2023-02-17T17:08:27.528Z,12.11
2023-02-17T17:10:56.105Z,12.18
2023-02-17T17:13:24.533Z,12.24
2023-02-17T17:15:53.128Z,12.27
2023-02-17T17:18:24.102Z,12.34
2023-02-17T17:20:53.296Z,12.42
2023-02-17T17:23:23.314Z,12.39
2023-02-17T17:25:51.936Z,12.50
2023-02-17T17:28:21.305Z,12.64
2023-02-17T17:30:50.510Z,12.71
2023-02-17T17:33:19.111Z,12.75
2023-02-17T17:35:47.683Z,12.72
2023-02-17T17:38:16.992Z,12.86
2023-02-17T17:40:56.614Z,12.80
2023-02-17T17:43:25.189Z,12.87
2023-02-17T17:45:53.947Z,12.80
2023-02-17T17:48:22.849Z,12.77
2023-02-17T17:50:51.589Z,12.95
2023-02-17T17:53:20.496Z,12.88
2023-02-17T17:55:49.225Z,12.87
2023-02-17T17:58:19.258Z,12.97
2023-02-17T18:00:48.355Z,12.87
2023-02-17T18:03:17.116Z,12.79
2023-02-17T18:05:46.004Z,12.79
2023-02-17T18:08:14.910Z,12.78
2023-02-17T18:10:44.265Z,12.74
2023-02-17T18:13:16.356Z,12.77
2023-02-17T18:15:47.359Z,12.71
2023-02-17T18:18:17.045Z,12.74
2023-02-17T18:20:46.117Z,12.84
2023-02-17T18:23:15.077Z,12.82
2023-02-17T18:25:44.236Z,12.86
2023-02-17T18:28:12.931Z,12.85
2023-02-17T18:30:41.814Z,12.96
2023-02-17T18:33:11.872Z,13.04
2023-02-17T18:35:40.377Z,13.17
2023-02-17T18:38:09.080Z,13.05
2023-02-17T18:40:40.607Z,13.07
2023-02-17T18:43:10.110Z,13.17
2023-02-17T18:45:38.808Z,13.03
2023-02-17T18:48:07.565Z,13.07
2023-02-17T18:50:37.717Z,13.14
2023-02-17T18:53:06.464Z,13.20
2023-02-17T18:55:38.723Z,13.06
2023-02-17T18:58:07.588Z,13.19
2023-02-17T19:00:36.371Z,13.14
2023-02-17T19:03:05.073Z,12.96
2023-02-17T19:05:33.821Z,13.14
2023-02-17T19:08:03.969Z,13.16
2023-02-17T19:10:32.707Z,13.10
2023-02-17T19:13:01.319Z,13.12
2023-02-17T19:15:30.201Z,13.06
2023-02-17T19:17:59.670Z,13.09
2023-02-17T19:20:29.435Z,12.98
2023-02-17T19:22:58.176Z,13.07
2023-02-17T19:25:28.348Z,13.03
2023-02-17T19:27:57.250Z,13.08
2023-02-17T19:30:25.890Z,13.14
2023-02-17T19:32:54.816Z,13.10
2023-02-17T19:35:23.473Z,13.18
2023-02-17T19:37:52.142Z,13.10
2023-02-17T19:40:21.477Z,13.14
2023-02-17T19:42:51.563Z,13.16
2023-02-17T19:45:20.136Z,13.04
2023-02-17T19:47:49.053Z,12.90
2023-02-17T19:50:18.102Z,12.97
2023-02-17T19:52:46.872Z,12.88
2023-02-17T19:55:15.883Z,12.72
2023-02-17T19:57:44.909Z,12.64
2023-02-17T20:00:16.130Z,12.64
2023-02-17T20:02:44.971Z,12.50
2023-02-17T20:05:13.752Z,12.67
2023-02-17T20:07:42.737Z,12.47
2023-02-17T20:10:13.790Z,12.40
2023-02-17T20:12:42.760Z,12.42
2023-02-17T20:15:11.562Z,12.49
2023-02-17T20:17:42.168Z,12.34
2023-02-17T20:20:12.706Z,12.29
2023-02-17T20:22:41.535Z,12.15
2023-02-17T20:25:10.531Z,11.97
2023-02-17T20:27:39.303Z,12.22
2023-02-17T20:30:09.634Z,12.16
2023-02-17T20:32:38.421Z,12.13
2023-02-17T20:35:09.588Z,12.07
2023-02-17T20:37:38.151Z,12.07
2023-02-17T20:40:08.538Z,12.19
2023-02-17T20:42:37.138Z,12.18
2023-02-17T20:45:06.489Z,12.12
2023-02-17T20:47:35.142Z,12.17
2023-02-17T20:50:08.996Z,12.09
2023-02-17T20:52:38.989Z,12.15
2023-02-17T20:55:08.639Z,12.19
2023-02-17T20:57:37.354Z,12.18
2023-02-17T21:00:08.466Z,12.14
2023-02-17T21:02:37.141Z,12.20
2023-02-17T21:05:06.500Z,12.20
2023-02-17T21:07:35.301Z,12.19
2023-02-17T21:10:06.984Z,12.24
2023-02-17T21:12:35.616Z,12.23
2023-02-17T21:15:04.147Z,12.08
2023-02-17T21:17:32.672Z,12.18
2023-02-17T21:20:01.573Z,12.15
2023-02-17T21:22:30.310Z,12.17
2023-02-17T21:25:00.088Z,12.09
2023-02-17T21:27:30.744Z,12.08
2023-02-17T21:29:59.842Z,12.07
2023-02-17T21:32:29.129Z,12.08
2023-02-17T21:34:58.083Z,12.00
2023-02-17T21:37:26.839Z,12.00
2023-02-17T21:39:55.639Z,12.06
2023-02-17T21:42:38.271Z,12.08
2023-02-17T21:45:09.290Z,12.12
2023-02-17T21:47:37.912Z,12.14
2023-02-17T21:50:08.364Z,12.18
2023-02-17T21:52:37.096Z,12.20
2023-02-17T21:55:06.554Z,12.20
2023-02-17T21:57:35.237Z,12.26
2023-02-17T22:00:04.892Z,12.20
2023-02-17T22:02:44.151Z,12.18
2023-02-17T22:05:13.272Z,12.29
2023-02-17T22:07:42.069Z,12.31
2023-02-17T22:10:11.784Z,12.25
2023-02-17T22:12:40.286Z,12.25
2023-02-17T22:15:11.633Z,12.21
2023-02-17T22:17:41.913Z,12.23
2023-02-17T22:20:11.400Z,12.29
2023-02-17T22:22:40.075Z,12.35
2023-02-17T22:25:09.167Z,12.35
2023-02-17T22:27:37.908Z,12.42
2023-02-17T22:30:08.964Z,12.28
2023-02-17T22:32:38.456Z,12.30
2023-02-17T22:35:08.946Z,12.27
2023-02-17T22:37:38.424Z,12.29
2023-02-17T22:40:09.505Z,12.32
2023-02-17T22:42:38.093Z,12.29
2023-02-17T22:45:07.808Z,12.27
2023-02-17T22:47:36.490Z,12.37
2023-02-17T22:50:06.441Z,12.31
2023-02-17T22:52:36.981Z,12.30
2023-02-17T22:55:06.366Z,12.40
2023-02-17T22:57:35.057Z,12.43
2023-02-17T23:00:03.864Z,12.48
2023-02-17T23:02:35.786Z,12.45
2023-02-17T23:05:04.706Z,12.46
2023-02-17T23:07:33.471Z,12.54
2023-02-17T23:10:04.163Z,12.49
2023-02-17T23:12:32.899Z,12.49
2023-02-17T23:15:02.501Z,12.51
2023-02-17T23:17:51.974Z,12.52
2023-02-17T23:20:20.942Z,12.42
2023-02-17T23:22:49.600Z,12.48
2023-02-17T23:25:19.713Z,12.60
2023-02-17T23:27:48.348Z,12.57
2023-02-17T23:30:21.801Z,12.55
2023-02-17T23:32:50.670Z,12.52
2023-02-17T23:35:19.697Z,12.58
2023-02-17T23:37:50.793Z,12.59
2023-02-17T23:40:21.452Z,12.65
2023-02-17T23:42:50.214Z,12.65
2023-02-17T23:45:19.119Z,12.62
2023-02-17T23:47:47.795Z,12.60
2023-02-17T23:50:17.174Z,12.59
2023-02-17T23:52:45.871Z,12.63
2023-02-17T23:55:14.531Z,12.59
2023-02-17T23:57:44.648Z,12.58
